Time;durP1;ratioP1;P1;durP2;ratioP2;P2;SDS_P1;SDS_P2;PMS_P1;PMS_P2;Temp;Humidity;BMP_temperature;BMP_pressure;BME280_temperature;BME280_humidity;BME280_pressure;Samples;Min_cycle;Max_cycle;Signal;HPM_P1;HPM_P2
2023/06/06 00:01:01;;;;;;;7.55;4.18;;;;;;;-142.75;100.00;77560.56;5064585;28;20032;-64
2023/06/06 00:03:28;;;;;;;11.25;4.38;;;;;;;-142.75;100.00;77564.50;5063841;28;20035;-65
2023/06/06 00:05:54;;;;;;;10.65;4.40;;;;;;;-142.75;100.00;77566.47;5065985;28;20077;-65
2023/06/06 00:08:23;;;;;;;8.68;4.00;;;;;;;-142.75;100.00;77558.59;5064895;28;20036;-65
2023/06/06 00:10:49;;;;;;;8.52;4.50;;;;;;;-142.75;100.00;77572.38;5064352;28;20194;-65
2023/06/06 00:13:15;;;;;;;11.40;4.60;;;;;;;-142.75;100.00;77570.41;5064717;28;20024;-64
2023/06/06 00:15:40;;;;;;;7.80;3.90;;;;;;;-142.75;100.00;77572.38;5065162;28;20100;-64
2023/06/06 00:18:07;;;;;;;7.80;4.00;;;;;;;-142.75;100.00;77570.41;5064788;28;20028;-65
2023/06/06 00:20:35;;;;;;;8.00;3.75;;;;;;;-142.75;100.00;77576.31;5064515;28;20587;-65
2023/06/06 00:23:01;;;;;;;9.43;4.70;;;;;;;-142.75;100.00;77582.22;5064684;28;20024;-64
2023/06/06 00:25:26;;;;;;;8.93;4.80;;;;;;;-142.75;100.00;77574.34;5064887;28;20367;-65
2023/06/06 00:27:51;;;;;;;6.65;3.95;;;;;;;-142.75;100.00;77580.25;5064626;28;20041;-65
2023/06/06 00:30:17;;;;;;;8.00;3.92;;;;;;;-142.75;100.00;77578.28;5064175;28;20039;-65
2023/06/06 00:32:43;;;;;;;8.60;4.28;;;;;;;-142.75;100.00;77576.31;5079867;28;20067;-65
2023/06/06 00:35:09;;;;;;;7.10;3.90;;;;;;;-142.75;100.00;77558.59;5064788;28;20043;-65
2023/06/06 00:37:35;;;;;;;12.02;3.92;;;;;;;-142.75;100.00;77558.59;5065320;28;20048;-65
2023/06/06 00:40:00;;;;;;;7.68;4.40;;;;;;;-142.75;100.00;77558.59;5064487;28;20692;-64
2023/06/06 00:42:25;;;;;;;9.10;4.43;;;;;;;-142.75;100.00;77564.50;5064604;28;20032;-65
2023/06/06 00:44:51;;;;;;;9.07;4.68;;;;;;;-142.75;100.00;77554.66;5064644;28;20040;-65
2023/06/06 00:47:16;;;;;;;9.98;4.53;;;;;;;-142.75;100.00;77566.47;5065447;28;20020;-64
2023/06/06 00:49:45;;;;;;;7.05;3.75;;;;;;;-142.75;100.00;77558.59;5068337;28;20035;-65
2023/06/06 00:52:11;;;;;;;8.15;4.57;;;;;;;-142.75;100.00;77562.53;5067427;28;20520;-65
2023/06/06 00:54:37;;;;;;;7.57;4.30;;;;;;;-142.75;100.00;77562.53;5067975;28;20024;-65
2023/06/06 00:57:03;;;;;;;9.38;4.25;;;;;;;-142.75;100.00;77562.53;5068205;28;20473;-64
2023/06/06 00:59:28;;;;;;;8.40;3.83;;;;;;;-142.75;100.00;77552.69;5068102;28;20249;-65
2023/06/06 01:01:54;;;;;;;9.88;4.07;;;;;;;-142.75;100.00;77566.47;5067554;28;20020;-65
2023/06/06 01:04:19;;;;;;;9.00;4.57;;;;;;;-142.75;100.00;77564.50;5067877;28;20028;-65
2023/06/06 01:06:46;;;;;;;7.82;4.45;;;;;;;-142.75;100.00;77566.47;5068826;28;20024;-65
2023/06/06 01:09:13;;;;;;;9.63;4.50;;;;;;;-142.75;100.00;77566.47;5067515;28;20032;-65
2023/06/06 01:11:51;;;;;;;8.38;4.25;;;;;;;-142.75;100.00;77566.47;5066324;28;20052;-65
2023/06/06 01:14:43;;;;;;;9.45;4.43;;;;;;;-142.75;100.00;77566.47;5067785;28;20043;-65
2023/06/06 01:17:09;;;;;;;8.38;4.50;;;;;;;-142.75;100.00;77570.41;5067319;28;20028;-65
2023/06/06 01:19:37;;;;;;;8.25;4.47;;;;;;;-142.75;100.00;77566.47;5067467;28;20397;-65
2023/06/06 01:22:04;;;;;;;9.13;4.65;;;;;;;-142.75;100.00;77568.44;5067455;28;20502;-65
2023/06/06 01:24:30;;;;;;;10.32;4.80;;;;;;;-142.75;100.00;77572.38;5067408;28;20024;-65
2023/06/06 01:26:55;;;;;;;9.93;4.13;;;;;;;-142.75;100.00;77570.41;5067717;28;20482;-65
2023/06/06 01:29:21;;;;;;;10.05;5.40;;;;;;;-142.75;100.00;77584.19;5067380;28;20031;-65
2023/06/06 01:32:05;;;;;;;11.48;4.65;;;;;;;-142.75;100.00;77576.31;5066864;28;20037;-65
2023/06/06 01:34:38;;;;;;;9.40;4.40;;;;;;;-142.75;100.00;77588.13;5067292;28;20040;-64
2023/06/06 01:37:19;;;;;;;8.38;4.43;;;;;;;-142.75;100.00;77584.19;5067994;28;20024;-65
2023/06/06 01:39:47;;;;;;;9.77;4.68;;;;;;;-142.75;100.00;77578.28;5067337;28;20437;-65
2023/06/06 01:42:15;;;;;;;7.93;4.40;;;;;;;-142.75;100.00;77580.25;5080888;28;20111;-65
2023/06/06 01:44:42;;;;;;;11.15;5.00;;;;;;;-142.75;100.00;77590.09;5066919;28;20035;-65
2023/06/06 01:47:08;;;;;;;11.35;4.45;;;;;;;-142.75;100.00;77594.03;5066413;28;20024;-65
2023/06/06 01:49:33;;;;;;;10.88;4.63;;;;;;;-142.75;100.00;77603.88;5067167;28;20040;-65
2023/06/06 01:51:59;;;;;;;12.35;5.07;;;;;;;-142.75;100.00;77609.78;5066727;28;20032;-66
2023/06/06 01:54:24;;;;;;;13.02;5.32;;;;;;;-142.75;100.00;77601.91;5066891;28;20037;-65
2023/06/06 01:56:50;;;;;;;10.63;4.82;;;;;;;-142.75;100.00;77615.69;5067015;28;20027;-65
2023/06/06 01:59:16;;;;;;;13.35;5.05;;;;;;;-142.75;100.00;77609.78;5066077;28;20024;-64
2023/06/06 02:01:42;;;;;;;11.30;4.75;;;;;;;-142.75;100.00;77605.84;5066377;28;20024;-65
2023/06/06 02:04:07;;;;;;;11.77;5.20;;;;;;;-142.75;100.00;77609.78;5066495;28;20024;-65
2023/06/06 02:06:32;;;;;;;16.02;5.35;;;;;;;-142.75;100.00;77601.91;5083204;28;20234;-65
2023/06/06 02:08:58;;;;;;;8.95;4.80;;;;;;;-142.75;100.00;77592.06;5066501;28;20032;-65
2023/06/06 02:11:23;;;;;;;7.82;4.70;;;;;;;-142.75;100.00;77590.09;5066017;28;20025;-65
2023/06/06 02:13:50;;;;;;;10.18;5.05;;;;;;;-142.75;100.00;77590.09;5081852;28;20165;-65
2023/06/06 02:16:17;;;;;;;13.90;6.07;;;;;;;-142.75;100.00;77613.72;5066678;28;20079;-65
2023/06/06 02:18:44;;;;;;;9.18;5.25;;;;;;;-142.75;100.00;77597.97;5066299;28;20028;-64
2023/06/06 02:21:10;;;;;;;8.15;4.38;;;;;;;-142.75;100.00;77596.00;5066187;28;20027;-65
2023/06/06 02:23:37;;;;;;;8.38;4.50;;;;;;;-142.75;100.00;77601.91;5066289;28;20425;-65
2023/06/06 02:26:03;;;;;;;8.57;4.90;;;;;;;-142.75;100.00;77590.09;5066039;28;20070;-65
2023/06/06 02:28:30;;;;;;;10.38;4.70;;;;;;;-142.75;100.00;77592.06;5066100;28;20443;-66
2023/06/06 02:30:56;;;;;;;10.38;4.80;;;;;;;-142.75;100.00;77592.06;5081518;28;20028;-65
2023/06/06 02:33:21;;;;;;;8.27;4.25;;;;;;;-142.75;100.00;77580.25;5066179;28;20073;-65
2023/06/06 02:35:46;;;;;;;7.82;4.22;;;;;;;-142.75;100.00;77576.31;5066532;28;20085;-65
2023/06/06 02:38:12;;;;;;;10.20;4.47;;;;;;;-142.75;100.00;77592.06;5065741;28;20056;-65
2023/06/06 02:40:37;;;;;;;9.77;4.85;;;;;;;-142.75;100.00;77596.00;5065599;28;20055;-65
2023/06/06 02:43:02;;;;;;;9.27;4.50;;;;;;;-142.75;100.00;77578.28;5064401;28;20497;-65
2023/06/06 02:45:28;;;;;;;9.48;4.50;;;;;;;-142.75;100.00;77574.34;5081619;28;20570;-65
2023/06/06 02:47:53;;;;;;;11.93;4.32;;;;;;;-142.75;100.00;77578.28;5065981;28;21314;-65
2023/06/06 02:50:20;;;;;;;9.85;4.85;;;;;;;-142.75;100.00;77578.28;5065222;28;20105;-65
2023/06/06 02:52:46;;;;;;;7.65;4.30;;;;;;;-142.75;100.00;77586.16;5065846;28;20058;-65
2023/06/06 02:55:11;;;;;;;12.00;5.07;;;;;;;-142.75;100.00;77582.22;5066006;28;20020;-64
2023/06/06 02:57:36;;;;;;;10.85;4.53;;;;;;;-142.75;100.00;77566.47;5065625;28;20047;-64
2023/06/06 03:00:08;;;;;;;9.20;4.15;;;;;;;-142.75;100.00;77572.38;5065564;28;20020;-65
2023/06/06 03:02:33;;;;;;;7.90;4.57;;;;;;;-142.75;100.00;77572.38;5065295;28;20082;-64
2023/06/06 03:04:59;;;;;;;8.55;4.18;;;;;;;-142.75;100.00;77584.19;5065813;28;20029;-65
2023/06/06 03:07:26;;;;;;;8.90;4.18;;;;;;;-142.75;100.00;77582.22;5066552;28;20041;-65
2023/06/06 03:09:52;;;;;;;8.63;4.03;;;;;;;-142.75;100.00;77580.25;5065706;28;20099;-65
2023/06/06 03:12:17;;;;;;;9.85;4.35;;;;;;;-142.75;100.00;77582.22;5064485;28;20108;-64
2023/06/06 03:14:42;;;;;;;11.40;4.25;;;;;;;-142.75;100.00;77578.28;5065481;28;20017;-65
2023/06/06 03:17:08;;;;;;;9.20;4.18;;;;;;;-142.75;100.00;77582.22;5065215;28;20042;-65
2023/06/06 03:19:35;;;;;;;10.68;4.13;;;;;;;-142.75;100.00;77586.16;5065367;28;20026;-65
2023/06/06 03:22:00;;;;;;;9.68;4.50;;;;;;;-142.75;100.00;77607.81;5065159;28;20050;-64
2023/06/06 03:24:28;;;;;;;8.40;4.75;;;;;;;-142.75;100.00;77594.03;5065361;28;20049;-65
2023/06/06 03:26:54;;;;;;;8.25;4.63;;;;;;;-142.75;100.00;77590.09;5065379;28;20043;-65
2023/06/06 03:29:20;;;;;;;8.13;4.45;;;;;;;-142.75;100.00;77590.09;5065151;28;20727;-65
2023/06/06 03:31:48;;;;;;;12.70;4.50;;;;;;;-142.75;100.00;77590.09;5064900;28;20043;-65
2023/06/06 03:34:14;;;;;;;10.55;4.10;;;;;;;-142.75;100.00;77594.03;5065252;28;20070;-64
2023/06/06 03:36:39;;;;;;;10.25;4.57;;;;;;;-142.75;100.00;77597.97;5065078;28;20020;-64
2023/06/06 03:39:05;;;;;;;11.15;5.05;;;;;;;-142.75;100.00;77596.00;5080186;28;20531;-64
2023/06/06 03:41:33;;;;;;;11.10;5.13;;;;;;;-142.75;100.00;77588.13;5079796;28;20019;-63
2023/06/06 03:44:00;;;;;;;11.32;4.80;;;;;;;-142.75;100.00;77596.00;5063262;28;20189;-64
2023/06/06 03:46:25;;;;;;;8.00;4.07;;;;;;;-142.75;100.00;77592.06;5063300;28;20016;-65
2023/06/06 03:48:51;;;;;;;11.18;4.93;;;;;;;-142.75;100.00;77590.09;5080079;28;20543;-65
2023/06/06 03:51:16;;;;;;;12.00;4.80;;;;;;;-142.75;100.00;77586.16;5063952;28;20109;-64
2023/06/06 03:53:42;;;;;;;11.38;4.85;;;;;;;-142.75;100.00;77586.16;5064392;28;20024;-66
2023/06/06 03:56:08;;;;;;;8.80;5.15;;;;;;;-142.75;100.00;77582.22;5064429;28;20595;-65
2023/06/06 03:58:33;;;;;;;10.68;4.72;;;;;;;-142.75;100.00;77582.22;5064676;28;20531;-65
2023/06/06 04:00:59;;;;;;;10.25;4.38;;;;;;;-142.75;100.00;77576.31;5064836;28;20032;-66
2023/06/06 04:03:29;;;;;;;10.73;5.38;;;;;;;-142.75;100.00;77576.31;5065100;28;20524;-66
2023/06/06 04:05:54;;;;;;;8.25;3.92;;;;;;;-142.75;100.00;77570.41;5065200;28;20489;-66
2023/06/06 04:08:20;;;;;;;13.55;5.30;;;;;;;-142.75;100.00;77562.53;5065018;28;20078;-66
2023/06/06 04:10:45;;;;;;;13.70;5.13;;;;;;;-142.75;100.00;77564.50;5064279;28;20555;-66
2023/06/06 04:13:11;;;;;;;10.15;4.50;;;;;;;-142.75;100.00;77570.41;5064661;28;20645;-66
2023/06/06 04:15:36;;;;;;;11.13;5.20;;;;;;;-142.75;100.00;77566.47;5064724;28;20020;-66
2023/06/06 04:18:03;;;;;;;10.52;5.15;;;;;;;-142.75;100.00;77554.66;5064833;28;20489;-65
2023/06/06 04:20:32;;;;;;;8.45;4.50;;;;;;;-142.75;100.00;77560.56;5064327;28;20542;-66
2023/06/06 04:23:00;;;;;;;12.23;4.82;;;;;;;-142.75;100.00;77550.72;5066999;28;20023;-66
2023/06/06 04:25:25;;;;;;;11.75;5.63;;;;;;;-142.75;100.00;77546.78;5068215;28;20028;-66
2023/06/06 04:27:51;;;;;;;9.27;4.32;;;;;;;-142.75;100.00;77542.84;5068487;28;20024;-67
2023/06/06 04:30:22;;;;;;;7.60;4.60;;;;;;;-142.75;100.00;77533.00;5068245;28;20020;-65
2023/06/06 04:32:48;;;;;;;11.38;5.05;;;;;;;-142.75;100.00;77533.00;5068321;28;20759;-65
2023/06/06 04:35:13;;;;;;;13.05;5.75;;;;;;;-142.75;100.00;77519.22;5068518;28;20052;-66
2023/06/06 04:37:39;;;;;;;9.18;5.15;;;;;;;-142.75;100.00;77513.31;5084938;28;20416;-66
2023/06/06 04:40:06;;;;;;;11.70;4.85;;;;;;;-142.75;100.00;77503.47;5068023;28;20489;-66
2023/06/06 04:42:34;;;;;;;7.25;4.60;;;;;;;-142.75;100.00;77503.47;5068374;28;20027;-66
2023/06/06 04:45:02;;;;;;;8.50;4.70;;;;;;;-142.75;100.00;77499.53;5068486;28;20028;-66
2023/06/06 04:47:28;;;;;;;11.52;5.45;;;;;;;-142.75;100.00;77493.63;5068396;28;20641;-66
2023/06/06 04:49:54;;;;;;;12.82;5.00;;;;;;;-142.75;100.00;77483.78;5068141;28;20036;-66
2023/06/06 04:52:20;;;;;;;10.30;4.60;;;;;;;-142.75;100.00;77487.72;5067341;28;20536;-64
2023/06/06 04:54:45;;;;;;;8.65;4.60;;;;;;;-142.75;100.00;77483.78;5068140;28;20077;-66
2023/06/06 04:57:19;;;;;;;13.02;5.28;;;;;;;-142.75;100.00;77473.94;5067996;28;20047;-66
2023/06/06 04:59:50;;;;;;;8.93;4.20;;;;;;;-142.75;100.00;77468.03;5068034;28;20482;-66
2023/06/06 05:02:17;;;;;;;11.65;5.13;;;;;;;-142.75;100.00;77468.03;5067656;28;20016;-66
2023/06/06 05:04:42;;;;;;;10.65;4.55;;;;;;;-142.75;100.00;77448.34;5067640;28;20020;-66
2023/06/06 05:07:08;;;;;;;11.00;5.10;;;;;;;-142.75;100.00;77448.34;5068537;28;20426;-65
2023/06/06 05:09:33;;;;;;;9.05;5.10;;;;;;;-142.75;100.00;77436.50;5083224;28;20162;-66
2023/06/06 05:11:59;;;;;;;11.50;4.88;;;;;;;-142.75;100.00;77438.47;5083324;28;20035;-67
2023/06/06 05:14:24;;;;;;;13.43;5.30;;;;;;;-142.75;100.00;77424.69;5067459;28;20094;-66
2023/06/06 05:16:52;;;;;;;11.88;5.03;;;;;;;-142.75;100.00;77408.94;5067684;28;20117;-66
2023/06/06 05:19:18;;;;;;;13.15;5.25;;;;;;;-142.75;100.00;77399.09;5067238;28;20023;-66
2023/06/06 05:21:43;;;;;;;13.50;5.38;;;;;;;-142.75;100.00;77399.09;5082768;28;20017;-65
2023/06/06 05:24:09;;;;;;;9.23;4.97;;;;;;;-142.75;100.00;77385.31;5067525;28;20039;-65
2023/06/06 05:26:34;;;;;;;10.48;5.65;;;;;;;-142.75;100.00;77369.56;5067383;28;20020;-65
2023/06/06 05:29:00;;;;;;;12.18;5.45;;;;;;;-142.75;100.00;77359.72;5067628;28;20139;-65
2023/06/06 05:31:25;;;;;;;11.27;4.95;;;;;;;-142.75;100.00;77361.69;5066932;28;20388;-65
2023/06/06 05:33:51;;;;;;;11.20;4.95;;;;;;;-142.75;100.00;77342.00;5066317;28;20029;-65
2023/06/06 05:36:16;;;;;;;8.80;5.35;;;;;;;-142.75;100.00;77340.03;5067665;28;20021;-66
2023/06/06 05:38:41;;;;;;;13.07;5.32;;;;;;;-142.75;100.00;77336.09;5067539;28;20037;-66
2023/06/06 05:41:07;;;;;;;11.80;4.95;;;;;;;-142.75;100.00;77328.22;5066620;28;20031;-65
2023/06/06 05:43:33;;;;;;;13.55;5.20;;;;;;;-142.75;100.00;77328.22;5067343;28;20029;-65
2023/06/06 05:46:00;;;;;;;11.93;4.47;;;;;;;-142.75;100.00;77314.44;5067426;28;20029;-66
2023/06/06 05:48:26;;;;;;;7.57;4.05;;;;;;;-142.75;100.00;77306.56;5065791;28;20107;-65
2023/06/06 05:50:51;;;;;;;8.73;4.63;;;;;;;-142.75;100.00;77308.53;5066770;28;20116;-65
2023/06/06 05:53:16;;;;;;;10.07;4.40;;;;;;;-142.75;100.00;77306.56;5067005;28;20025;-65
2023/06/06 05:55:42;;;;;;;11.45;4.28;;;;;;;-142.75;100.00;77296.72;5067021;28;20059;-65
2023/06/06 05:58:07;;;;;;;11.55;4.60;;;;;;;-142.75;100.00;77279.00;5067054;28;20751;-65
2023/06/06 06:00:33;;;;;;;8.63;4.32;;;;;;;-142.75;100.00;77265.22;5064967;28;20489;-66
2023/06/06 06:03:00;;;;;;;15.80;4.90;;;;;;;-142.75;100.00;77247.50;5066610;28;20032;-66
2023/06/06 06:05:29;;;;;;;11.68;4.78;;;;;;;-142.75;100.00;77255.38;5066071;28;20062;-65
2023/06/06 06:07:59;;;;;;;8.85;4.50;;;;;;;-142.75;100.00;77247.50;5064398;28;20448;-65
2023/06/06 06:10:32;;;;;;;12.13;4.20;;;;;;;-142.75;100.00;77243.56;5064672;28;20032;-65
2023/06/06 06:12:58;;;;;;;11.10;4.32;;;;;;;-142.75;100.00;77243.56;5066381;28;20394;-65
2023/06/06 06:15:24;;;;;;;8.75;3.95;;;;;;;-142.75;100.00;77233.72;5066474;28;20055;-65
2023/06/06 06:17:50;;;;;;;9.95;4.38;;;;;;;-142.75;100.00;77247.50;5062554;28;20464;-65
2023/06/06 06:20:16;;;;;;;10.93;4.38;;;;;;;-142.75;100.00;77237.66;5064067;28;20103;-65
2023/06/06 06:22:43;;;;;;;10.23;4.07;;;;;;;-142.75;100.00;77231.75;5065333;28;20017;-65
2023/06/06 06:25:12;;;;;;;9.00;3.88;;;;;;;-142.75;100.00;77231.75;5084470;28;20047;-63
2023/06/06 06:27:41;;;;;;;12.40;4.25;;;;;;;-142.75;100.00;77208.13;5067181;28;20417;-66
2023/06/06 06:30:10;;;;;;;11.60;4.18;;;;;;;-142.75;100.00;77176.63;5066844;28;20394;-65
2023/06/06 06:32:40;;;;;;;9.60;4.07;;;;;;;-142.75;100.00;77176.63;5066664;28;20136;-67
2023/06/06 06:35:06;;;;;;;9.20;4.00;;;;;;;-142.75;100.00;77182.53;5066692;28;20032;-66
2023/06/06 06:37:36;;;;;;;12.18;4.47;;;;;;;-142.75;100.00;77162.84;5065967;28;20051;-66
2023/06/06 06:40:05;;;;;;;9.98;3.90;;;;;;;-142.75;100.00;77123.47;5066711;28;20032;-66
2023/06/06 06:42:30;;;;;;;11.75;3.70;;;;;;;-142.75;100.00;77088.03;5066325;28;20016;-67
2023/06/06 06:44:56;;;;;;;11.40;4.35;;;;;;;-142.75;100.00;77076.22;5079806;28;20634;-67
2023/06/06 06:47:21;;;;;;;11.95;3.92;;;;;;;-142.75;100.00;77054.56;5065179;28;20036;-67
2023/06/06 06:49:48;;;;;;;12.35;4.13;;;;;;;-142.75;100.00;77040.78;5066704;28;20016;-66
2023/06/06 06:52:16;;;;;;;10.85;4.22;;;;;;;-142.75;100.00;77013.22;5063147;28;20024;-67
2023/06/06 06:54:46;;;;;;;8.43;4.10;;;;;;;-142.75;100.00;76987.63;5065506;28;20052;-67
2023/06/06 06:57:12;;;;;;;9.75;4.35;;;;;;;-142.75;100.00;76987.63;5065054;28;20021;-67
2023/06/06 06:59:38;;;;;;;8.70;3.65;;;;;;;-142.75;100.00;76969.91;5063137;28;20027;-67
2023/06/06 07:02:05;;;;;;;12.88;4.10;;;;;;;-142.75;100.00;76971.88;5063677;28;22102;-68
2023/06/06 07:04:30;;;;;;;9.73;3.88;;;;;;;-142.75;100.00;76962.03;5064127;28;20081;-67
2023/06/06 07:06:56;;;;;;;14.02;3.88;;;;;;;-142.75;100.00;76948.25;5065795;28;20024;-68
2023/06/06 07:09:22;;;;;;;9.35;3.88;;;;;;;-142.75;100.00;76962.03;5063131;28;20654;-69
2023/06/06 07:11:47;;;;;;;8.35;3.70;;;;;;;-142.75;100.00;76965.97;5064415;28;20440;-68
2023/06/06 07:14:13;;;;;;;11.52;4.25;;;;;;;-142.75;100.00;77005.34;5064388;28;20021;-67
2023/06/06 07:16:38;;;;;;;8.50;3.30;;;;;;;-142.75;100.00;76975.81;5064773;28;20032;-68
2023/06/06 07:19:03;;;;;;;8.98;3.80;;;;;;;-142.75;100.00;76950.22;5064055;28;20021;-67
2023/06/06 07:21:28;;;;;;;12.05;4.47;;;;;;;-142.75;100.00;76960.06;5063180;28;20050;-67
2023/06/06 07:23:55;;;;;;;10.27;4.38;;;;;;;-142.75;100.00;76960.06;5064360;28;20577;-68
2023/06/06 07:26:20;;;;;;;7.70;3.72;;;;;;;-142.75;100.00;76930.53;5063107;28;20123;-67
2023/06/06 07:28:49;;;;;;;7.78;3.72;;;;;;;-142.75;100.00;76914.78;5064050;28;20104;-66
2023/06/06 07:31:15;;;;;;;10.52;4.03;;;;;;;-142.75;100.00;76899.03;5063839;28;20489;-68
2023/06/06 07:33:41;;;;;;;9.18;4.15;;;;;;;-142.75;100.00;76924.63;5064249;28;21275;-68
2023/06/06 07:36:07;;;;;;;9.80;3.60;;;;;;;-142.75;100.00;76887.22;5064284;28;20024;-68
2023/06/06 07:38:34;;;;;;;9.30;3.78;;;;;;;-142.75;100.00;76887.22;5063038;28;20049;-67
2023/06/06 07:40:59;;;;;;;12.68;4.43;;;;;;;-142.75;100.00;76889.19;5063219;28;20035;-65
2023/06/06 07:43:25;;;;;;;8.13;3.80;;;;;;;-142.75;100.00;76871.47;5064057;28;20032;-67
2023/06/06 07:45:50;;;;;;;10.23;3.92;;;;;;;-142.75;100.00;76877.38;5063881;28;20016;-66
2023/06/06 07:48:16;;;;;;;8.80;3.70;;;;;;;-142.75;100.00;76855.72;5064309;28;20024;-68
2023/06/06 07:50:41;;;;;;;7.60;3.40;;;;;;;-142.75;100.00;76881.31;5063922;28;20024;-67
2023/06/06 07:53:07;;;;;;;6.65;3.35;;;;;;;-142.75;100.00;76877.38;5064478;28;20024;-68
2023/06/06 07:55:32;;;;;;;11.23;3.85;;;;;;;-142.75;100.00;76834.06;5079675;28;20067;-67
2023/06/06 07:57:58;;;;;;;6.63;3.15;;;;;;;-142.75;100.00;76845.88;5064156;28;20028;-68
2023/06/06 08:00:24;;;;;;;6.72;3.50;;;;;;;-142.75;100.00;76826.19;5064276;28;20024;-67
2023/06/06 08:02:49;;;;;;;6.40;3.40;;;;;;;-142.75;100.00;76804.53;5064382;28;20052;-68
2023/06/06 08:05:16;;;;;;;9.52;3.60;;;;;;;-142.75;100.00;76790.78;5064843;28;20111;-68
2023/06/06 08:07:41;;;;;;;9.10;3.63;;;;;;;-142.75;100.00;76775.03;5065642;28;20028;-68
2023/06/06 08:10:08;;;;;;;9.77;3.55;;;;;;;-142.75;100.00;76757.31;5080113;28;20409;-68
2023/06/06 08:12:33;;;;;;;7.63;3.22;;;;;;;-142.75;100.00;76751.41;5064675;28;20025;-67
2023/06/06 08:14:59;;;;;;;7.32;3.13;;;;;;;-142.75;100.00;76731.72;5065158;28;20032;-68
2023/06/06 08:17:25;;;;;;;8.05;3.45;;;;;;;-142.75;100.00;76741.56;5080589;28;20020;-68
2023/06/06 08:19:50;;;;;;;6.45;3.47;;;;;;;-142.75;100.00;76739.59;5066159;28;20699;-68
2023/06/06 08:22:15;;;;;;;7.85;3.63;;;;;;;-142.75;100.00;76727.78;5065729;28;20017;-68
2023/06/06 08:24:41;;;;;;;7.50;3.58;;;;;;;-142.75;100.00;76729.75;5066000;28;20029;-68
2023/06/06 08:27:07;;;;;;;9.18;3.13;;;;;;;-142.75;100.00;76723.84;5066092;28;20028;-67
2023/06/06 08:29:33;;;;;;;13.57;3.42;;;;;;;-142.75;100.00;76688.41;5065854;28;20024;-67
2023/06/06 08:32:01;;;;;;;6.88;3.50;;;;;;;-142.75;100.00;76696.28;5065945;28;20571;-68
2023/06/06 08:34:27;;;;;;;9.82;3.35;;;;;;;-142.75;100.00;76680.53;5066266;28;20137;-68
2023/06/06 08:36:53;;;;;;;7.30;3.88;;;;;;;-142.75;100.00;76645.09;5066152;28;20024;-68
2023/06/06 08:39:18;;;;;;;6.32;3.22;;;;;;;-142.75;100.00;76639.19;5065807;28;20039;-68
2023/06/06 08:41:50;;;;;;;8.05;3.05;;;;;;;-142.75;100.00;76641.16;5065581;28;20017;-68
2023/06/06 08:44:21;;;;;;;8.88;3.50;;;;;;;-142.75;100.00;76631.31;5065826;28;20111;-68
2023/06/06 08:46:49;;;;;;;8.93;3.60;;;;;;;-142.75;100.00;76627.38;5065839;28;20021;-68
2023/06/06 08:49:18;;;;;;;8.35;4.13;;;;;;;-142.75;100.00;76589.97;5065701;28;20021;-68
2023/06/06 08:51:45;;;;;;;6.55;3.55;;;;;;;-142.75;100.00;76591.94;5079780;28;20028;-69
2023/06/06 08:54:10;;;;;;;9.65;3.47;;;;;;;-142.75;100.00;76605.72;5065718;28;20024;-68
2023/06/06 08:56:37;;;;;;;11.75;3.85;;;;;;;-142.75;100.00;76566.34;5065753;28;20405;-68
2023/06/06 08:59:03;;;;;;;14.23;4.15;;;;;;;-142.75;100.00;76558.47;5065678;28;20103;-67
2023/06/06 09:01:29;;;;;;;11.85;4.15;;;;;;;-142.75;100.00;76548.63;5065512;28;20020;-68
2023/06/06 09:03:56;;;;;;;11.50;3.50;;;;;;;-142.75;100.00;76534.84;5065815;28;20107;-68
2023/06/06 09:06:22;;;;;;;8.18;3.22;;;;;;;-142.75;100.00;76505.34;5065711;28;20013;-68
2023/06/06 09:08:49;;;;;;;9.50;3.90;;;;;;;-142.75;100.00;76489.59;5066003;28;20035;-69
2023/06/06 09:11:16;;;;;;;11.25;3.53;;;;;;;-142.75;100.00;76499.44;5069489;28;20711;-68
2023/06/06 09:13:42;;;;;;;8.70;3.42;;;;;;;-142.75;100.00;76489.59;5067986;28;20020;-67
2023/06/06 09:16:08;;;;;;;7.72;3.42;;;;;;;-142.75;100.00;76487.63;5069140;28;20477;-67
2023/06/06 09:18:35;;;;;;;7.97;4.00;;;;;;;-142.75;99.15;76499.44;5069079;28;20381;-67
2023/06/06 09:21:00;;;;;;;10.90;3.90;;;;;;;-142.75;100.00;76503.38;5068602;28;20032;-69
2023/06/06 09:23:32;;;;;;;10.40;3.42;;;;;;;-142.75;100.00;76471.88;5068011;28;20389;-68
2023/06/06 09:25:58;;;;;;;5.97;3.53;;;;;;;-142.75;99.29;76452.19;5069291;28;20090;-68
2023/06/06 09:28:37;;;;;;;11.82;4.00;;;;;;;-142.75;97.02;76454.16;5068815;28;20537;-68
2023/06/06 09:31:26;;;;;;;11.73;4.13;;;;;;;-142.75;100.00;76475.81;5068628;28;20021;-67
2023/06/06 09:33:53;;;;;;;8.98;3.88;;;;;;;-142.75;100.00;76487.63;5068932;28;20039;-68
2023/06/06 09:36:23;;;;;;;7.13;3.03;;;;;;;-142.75;100.00;76456.13;5068825;28;20508;-68
2023/06/06 09:38:50;;;;;;;13.98;3.90;;;;;;;-142.75;100.00;76442.34;5068843;28;20583;-67
2023/06/06 09:41:15;;;;;;;11.02;4.20;;;;;;;-142.75;95.49;76432.50;5068363;28;20027;-67
2023/06/06 09:43:41;;;;;;;6.53;3.22;;;;;;;-142.75;96.17;76414.78;5084082;28;20021;-67
2023/06/06 09:46:06;;;;;;;12.32;4.20;;;;;;;-142.75;98.52;76412.81;5084091;28;20028;-67
2023/06/06 09:48:32;;;;;;;6.82;3.83;;;;;;;-142.75;95.09;76401.00;5067869;28;20561;-67
2023/06/06 09:50:58;;;;;;;8.65;4.32;;;;;;;-142.75;97.53;76379.34;5067809;28;20059;-68
2023/06/06 09:53:28;;;;;;;8.25;3.53;;;;;;;-142.75;92.26;76359.66;5067598;28;20031;-68
2023/06/06 09:55:56;;;;;;;7.75;3.47;;;;;;;-142.75;96.85;76334.09;5067820;28;20046;-67
2023/06/06 09:58:22;;;;;;;6.47;3.50;;;;;;;-142.75;92.08;76326.22;5067540;28;20020;-68
2023/06/06 10:00:48;;;;;;;6.68;3.60;;;;;;;-142.75;93.58;76361.63;5067286;28;20127;-66
2023/06/06 10:03:18;;;;;;;9.05;4.57;;;;;;;-142.75;95.72;76349.81;5066373;28;20063;-68
2023/06/06 10:05:50;;;;;;;7.28;3.75;;;;;;;-142.75;90.08;76345.91;5066628;28;20036;-69
2023/06/06 10:08:19;;;;;;;7.68;3.30;;;;;;;-142.75;90.25;76322.28;5067506;28;20025;-67
2023/06/06 10:10:46;;;;;;;9.82;3.80;;;;;;;-142.75;92.05;76332.13;5065409;28;20016;-67
2023/06/06 10:13:16;;;;;;;9.02;3.78;;;;;;;-142.75;92.43;76284.88;5067795;28;20134;-68
2023/06/06 10:15:42;;;;;;;11.57;4.10;;;;;;;-142.75;89.81;76286.84;5066927;28;20024;-67
2023/06/06 10:18:10;;;;;;;14.32;4.82;;;;;;;-142.75;89.70;76253.38;5067872;28;20020;-67
2023/06/06 10:20:36;;;;;;;9.00;3.97;;;;;;;-142.75;88.15;76310.47;5067244;28;20086;-68
2023/06/06 10:23:02;;;;;;;11.90;4.72;;;;;;;-142.75;84.76;76359.66;5067784;28;20078;-68
2023/06/06 10:25:28;;;;;;;10.35;4.15;;;;;;;-142.75;88.85;76328.19;5066431;28;20482;-68
2023/06/06 10:28:20;;;;;;;9.63;4.07;;;;;;;-142.75;91.43;76288.81;5067720;28;20028;-68
2023/06/06 10:30:58;;;;;;;10.43;4.00;;;;;;;-142.75;89.32;76275.03;5060350;28;20482;-68
2023/06/06 10:33:32;;;;;;;8.38;3.78;;;;;;;-142.75;87.13;76286.84;5066470;28;20078;-68
2023/06/06 10:36:02;;;;;;;8.55;4.43;;;;;;;-142.75;85.19;76284.88;5067662;28;20028;-68
2023/06/06 10:38:28;;;;;;;10.93;4.35;;;;;;;-142.75;86.36;76334.09;5066970;28;20497;-68
2023/06/06 10:40:55;;;;;;;10.45;4.25;;;;;;;-142.75;90.50;76282.91;5067071;28;20089;-68
2023/06/06 10:43:41;;;;;;;7.85;4.50;;;;;;;-142.75;85.98;76277.00;5067602;28;20389;-68
2023/06/06 10:46:07;;;;;;;9.65;4.20;;;;;;;-142.75;86.92;76271.09;5067368;28;20025;-69
2023/06/06 10:48:43;;;;;;;9.20;4.28;;;;;;;-142.75;89.20;76233.69;5067102;28;20067;-68
2023/06/06 10:51:25;;;;;;;;;;;;;;;-142.75;85.59;76263.22;5067290;28;20024;-68
2023/06/06 10:54:20;;;;;;;10.07;3.83;;;;;;;-142.75;89.24;76204.16;5065887;28;19916;-68
2023/06/06 10:56:46;;;;;;;8.90;3.95;;;;;;;-142.75;84.05;76249.44;5067104;28;20378;-68
2023/06/06 10:59:14;;;;;;;6.72;3.45;;;;;;;-142.75;86.48;76208.09;5066904;28;20031;-68
2023/06/06 11:01:44;;;;;;;10.88;4.47;;;;;;;-142.75;82.68;76237.63;5066733;28;21403;-68
2023/06/06 11:04:18;;;;;;;6.10;3.88;;;;;;;-142.75;84.52;76233.69;5067056;28;20028;-68
2023/06/06 11:06:44;;;;;;;7.95;3.67;;;;;;;-142.75;82.88;76233.69;5066944;28;20048;-68